createdAt,value
2017-07-29T00:01:58.748Z,101108.28
2017-07-29T00:04:26.574Z,101111.02
2017-07-29T00:06:54.348Z,101111.27
2017-07-29T00:09:22.232Z,101108.89
2017-07-29T00:11:50.006Z,101120.50
2017-07-29T00:14:17.838Z,101110.52
2017-07-29T00:16:45.625Z,101107.91
2017-07-29T00:19:13.487Z,101107.02
2017-07-29T00:21:41.269Z,101112.80
2017-07-29T00:24:09.037Z,101111.64
2017-07-29T00:26:37.813Z,101100.17
2017-07-29T00:29:05.598Z,101096.57
2017-07-29T00:31:33.416Z,101099.13
2017-07-29T00:34:01.190Z,101092.27
2017-07-29T00:36:29.091Z,101088.31
2017-07-29T00:38:56.870Z,101093.51
2017-07-29T00:41:24.691Z,101089.14
2017-07-29T00:43:52.472Z,101078.02
2017-07-29T00:46:20.234Z,101079.42
2017-07-29T00:48:48.057Z,101074.23
2017-07-29T00:51:15.829Z,101070.02
2017-07-29T00:53:43.628Z,101068.37
2017-07-29T00:56:11.408Z,101067.80
2017-07-29T00:58:39.228Z,101076.63
2017-07-29T01:01:06.999Z,101068.84
2017-07-29T01:03:34.849Z,101069.32
2017-07-29T01:06:02.643Z,101071.13
2017-07-29T01:08:30.425Z,101055.17
2017-07-29T01:10:58.252Z,101058.65
2017-07-29T01:13:26.019Z,101060.72
2017-07-29T01:15:53.819Z,101061.81
2017-07-29T01:18:21.615Z,101067.32
2017-07-29T01:20:49.415Z,101066.27
2017-07-29T01:23:17.187Z,101067.20
2017-07-29T01:25:45.033Z,101071.91
2017-07-29T01:28:12.801Z,101066.91
2017-07-29T01:30:40.589Z,101065.13
2017-07-29T01:33:08.402Z,101066.22
2017-07-29T01:35:36.238Z,101060.19
2017-07-29T01:38:04.077Z,101058.73
2017-07-29T01:40:31.846Z,101063.98
2017-07-29T01:42:59.692Z,101064.63
2017-07-29T01:45:27.455Z,101056.30
2017-07-29T01:47:55.294Z,101055.54
2017-07-29T01:50:23.143Z,101056.11
2017-07-29T01:52:50.968Z,101049.61
2017-07-29T01:55:18.808Z,101039.52
2017-07-29T01:57:46.626Z,101043.94
2017-07-29T02:00:14.520Z,101041.92
2017-07-29T02:02:42.367Z,101045.10
2017-07-29T02:05:10.253Z,101047.70
2017-07-29T02:07:38.056Z,101057.07
2017-07-29T02:10:05.893Z,101065.39
2017-07-29T02:12:33.677Z,101059.88
2017-07-29T02:15:01.462Z,101060.76
2017-07-29T02:17:29.291Z,101052.19
2017-07-29T02:19:57.069Z,101048.45
2017-07-29T02:22:24.941Z,101045.04
2017-07-29T02:24:52.742Z,101041.75
2017-07-29T02:27:20.576Z,101051.27
2017-07-29T02:29:48.340Z,101048.88
2017-07-29T02:32:16.192Z,101047.31
2017-07-29T02:34:44.048Z,101041.52
2017-07-29T02:37:11.822Z,101043.11
2017-07-29T02:39:39.659Z,101046.13
2017-07-29T02:42:07.449Z,101047.54
2017-07-29T02:44:35.279Z,101041.70
2017-07-29T02:47:03.031Z,101045.62
2017-07-29T02:49:30.856Z,101052.95
2017-07-29T02:51:58.615Z,101056.42
2017-07-29T02:54:26.485Z,101048.89
2017-07-29T02:56:54.256Z,101053.57
2017-07-29T02:59:22.045Z,101047.02
2017-07-29T03:01:49.889Z,101045.11
2017-07-29T03:04:17.648Z,101049.56
2017-07-29T03:06:45.476Z,101036.69
2017-07-29T03:09:13.265Z,101034.30
2017-07-29T03:11:41.102Z,101029.25
2017-07-29T03:14:08.872Z,101027.69
2017-07-29T03:16:36.724Z,101027.47
2017-07-29T03:19:04.512Z,101020.56
2017-07-29T03:21:32.305Z,101017.56
2017-07-29T03:24:00.173Z,101028.20
2017-07-29T03:26:27.977Z,101030.44
2017-07-29T03:28:55.784Z,101028.15
2017-07-29T03:31:23.567Z,101033.41
2017-07-29T03:33:51.385Z,101027.80
2017-07-29T03:36:19.213Z,101028.62
2017-07-29T03:38:47.021Z,101037.45
2017-07-29T03:41:14.811Z,101029.20
2017-07-29T03:43:42.591Z,101021.35
2017-07-29T03:46:10.421Z,101012.14
2017-07-29T03:48:38.229Z,101007.27
2017-07-29T03:51:06.064Z,101008.51
2017-07-29T03:53:33.848Z,101000.41
2017-07-29T03:56:01.659Z,101002.75
2017-07-29T03:58:29.436Z,101003.63
2017-07-29T04:00:57.268Z,101007.16
2017-07-29T04:03:25.086Z,101006.78
2017-07-29T04:05:52.856Z,101009.13
2017-07-29T04:08:20.718Z,101003.56
2017-07-29T04:10:48.515Z,100998.88
2017-07-29T04:13:16.367Z,100996.48
2017-07-29T04:15:44.136Z,101003.09
2017-07-29T04:18:11.960Z,101000.55
2017-07-29T04:20:39.746Z,100997.28
2017-07-29T04:23:07.622Z,100996.92
2017-07-29T04:25:35.409Z,101004.56
2017-07-29T04:28:03.187Z,101003.83
2017-07-29T04:30:31.015Z,101000.77
2017-07-29T04:32:58.780Z,101007.98
2017-07-29T04:35:26.651Z,101004.76
2017-07-29T04:37:54.424Z,101001.44
2017-07-29T04:40:22.258Z,100991.66
2017-07-29T04:42:50.028Z,101003.56
2017-07-29T04:45:17.882Z,101007.66
2017-07-29T04:47:45.673Z,100998.63
2017-07-29T04:50:13.473Z,100999.70
2017-07-29T04:52:41.300Z,100997.17
2017-07-29T04:55:09.100Z,100996.19
2017-07-29T04:57:36.912Z,101005.95
2017-07-29T05:00:04.720Z,100996.45
2017-07-29T05:02:32.561Z,100994.00
2017-07-29T05:05:00.368Z,101000.61
2017-07-29T05:07:28.166Z,101000.09
2017-07-29T05:09:56.002Z,101001.03
2017-07-29T05:12:23.800Z,101002.83
2017-07-29T05:14:51.636Z,101013.23
2017-07-29T05:17:19.412Z,101011.42
2017-07-29T05:19:47.245Z,101007.27
2017-07-29T05:22:15.041Z,101003.98
2017-07-29T05:24:42.833Z,100995.88
2017-07-29T05:27:10.718Z,101005.48
2017-07-29T05:29:38.520Z,101010.36
2017-07-29T05:32:06.353Z,101009.06
2017-07-29T05:34:34.148Z,101008.03
2017-07-29T05:37:02.043Z,101008.56
2017-07-29T05:39:29.844Z,101011.62
2017-07-29T05:41:57.644Z,101005.38
2017-07-29T05:44:25.462Z,100994.52
2017-07-29T05:46:53.261Z,101001.59
2017-07-29T05:49:21.109Z,100993.01
2017-07-29T05:51:48.908Z,100993.89
2017-07-29T05:54:16.776Z,100995.45
2017-07-29T05:56:44.557Z,100984.00
2017-07-29T05:59:12.352Z,100988.63
2017-07-29T06:01:40.179Z,100985.63
2017-07-29T06:04:07.960Z,100984.42
2017-07-29T06:06:35.793Z,100985.87
2017-07-29T06:09:03.661Z,100988.98
2017-07-29T06:11:31.517Z,100988.00
2017-07-29T06:13:59.326Z,100980.45
2017-07-29T06:16:27.185Z,100976.93
2017-07-29T06:18:54.965Z,100986.40
2017-07-29T06:21:22.754Z,100986.98
2017-07-29T06:23:50.560Z,100981.66
2017-07-29T06:26:18.339Z,100990.23
2017-07-29T06:28:46.162Z,100990.11
2017-07-29T06:31:13.938Z,100994.22
2017-07-29T06:33:41.763Z,100987.55
2017-07-29T06:36:09.588Z,100981.66
2017-07-29T06:38:37.427Z,100976.60
2017-07-29T06:41:05.213Z,100974.05
2017-07-29T06:43:32.963Z,100968.13
2017-07-29T06:46:00.788Z,100959.39
2017-07-29T06:48:28.576Z,100959.64
2017-07-29T06:50:56.397Z,100959.42
2017-07-29T06:53:24.167Z,100957.20
2017-07-29T06:55:52.028Z,100951.97
2017-07-29T06:58:19.811Z,100946.06
2017-07-29T07:00:47.654Z,100949.04
2017-07-29T07:03:15.421Z,100948.92
2017-07-29T07:05:43.192Z,100953.84
2017-07-29T07:08:11.011Z,100951.58
2017-07-29T07:10:38.803Z,100947.95
2017-07-29T07:13:06.645Z,100956.72
2017-07-29T07:15:34.445Z,100952.69
2017-07-29T07:18:02.271Z,100952.37
2017-07-29T07:20:30.044Z,100955.43
2017-07-29T07:22:57.900Z,100964.48
2017-07-29T07:25:25.703Z,100961.68
2017-07-29T07:27:53.493Z,100962.33
2017-07-29T07:30:21.317Z,100960.70
2017-07-29T07:32:49.097Z,100958.60
2017-07-29T07:35:16.967Z,100953.33
2017-07-29T07:37:44.756Z,100959.13
2017-07-29T07:40:12.583Z,100953.84
2017-07-29T07:42:40.376Z,100953.06
2017-07-29T07:45:08.224Z,100960.39
2017-07-29T07:47:36.022Z,100959.14
2017-07-29T07:50:03.887Z,100956.58
2017-07-29T07:52:31.755Z,100954.14
2017-07-29T07:54:59.567Z,100961.75
2017-07-29T07:57:27.409Z,100952.90
2017-07-29T07:59:55.233Z,100957.28
2017-07-29T08:02:23.064Z,100958.94
2017-07-29T08:04:50.893Z,100959.22
2017-07-29T08:07:18.783Z,100963.13
2017-07-29T08:09:46.579Z,100961.14
2017-07-29T08:12:14.392Z,100953.55
2017-07-29T08:14:42.237Z,100949.48
2017-07-29T08:17:10.020Z,100947.42
2017-07-29T08:19:37.872Z,100940.10
2017-07-29T08:22:05.655Z,100945.40
2017-07-29T08:24:33.492Z,100940.36
2017-07-29T08:27:01.288Z,100933.16
2017-07-29T08:29:29.169Z,100929.59
2017-07-29T08:31:56.954Z,100929.39
2017-07-29T08:34:24.749Z,100924.72
2017-07-29T08:36:52.663Z,100925.58
2017-07-29T08:39:20.505Z,100936.05
2017-07-29T08:41:48.409Z,100928.64
2017-07-29T08:44:16.219Z,100929.59
2017-07-29T08:46:44.101Z,100928.40
2017-07-29T08:49:11.899Z,100928.06
2017-07-29T08:51:39.779Z,100925.73
2017-07-29T08:54:07.610Z,100928.77
2017-07-29T08:56:35.383Z,100927.06
2017-07-29T08:59:03.203Z,100922.18
2017-07-29T09:01:31.005Z,100922.69
2017-07-29T09:03:58.893Z,100922.64
2017-07-29T09:06:26.707Z,100922.92
2017-07-29T09:08:54.592Z,100926.23
2017-07-29T09:11:22.386Z,100923.80
2017-07-29T09:13:50.198Z,100915.33
2017-07-29T09:16:18.048Z,100915.95
2017-07-29T09:18:45.828Z,100925.13
2017-07-29T09:21:13.682Z,100922.15
2017-07-29T09:23:41.450Z,100918.97
2017-07-29T09:26:09.288Z,100916.74
2017-07-29T09:28:37.072Z,100906.08
2017-07-29T09:31:04.888Z,100917.11
2017-07-29T09:33:32.745Z,100914.16
2017-07-29T09:36:00.605Z,100913.24
2017-07-29T09:38:28.434Z,100919.11
2017-07-29T09:40:56.256Z,100908.17
2017-07-29T09:43:24.114Z,100918.33
2017-07-29T09:45:51.938Z,100920.25
2017-07-29T09:48:19.811Z,100912.91
2017-07-29T09:50:47.645Z,100913.52
2017-07-29T09:53:15.442Z,100920.82
2017-07-29T09:55:43.359Z,100910.26
2017-07-29T09:58:11.165Z,100909.48
2017-07-29T10:00:39.065Z,100912.50
2017-07-29T10:03:06.931Z,100907.81
2017-07-29T10:05:34.798Z,100904.52
2017-07-29T10:08:02.596Z,100909.86
2017-07-29T10:10:30.430Z,100909.33
2017-07-29T10:12:58.288Z,100915.80
2017-07-29T10:15:26.080Z,100912.21
2017-07-29T10:17:53.948Z,100918.00
2017-07-29T10:20:21.741Z,100920.30
2017-07-29T10:22:49.589Z,100916.31
2017-07-29T10:25:17.410Z,100912.16
2017-07-29T10:27:45.349Z,100913.84
2017-07-29T10:30:13.155Z,100919.86
2017-07-29T10:32:40.987Z,100925.45
2017-07-29T10:35:08.890Z,100921.70
2017-07-29T10:37:36.696Z,100929.97
2017-07-29T10:40:04.616Z,100931.84
2017-07-29T10:42:32.411Z,100925.88
2017-07-29T10:45:00.253Z,100930.25
2017-07-29T10:47:28.100Z,100926.94
2017-07-29T10:49:55.978Z,100933.48
2017-07-29T10:52:23.778Z,100937.95
2017-07-29T10:54:51.626Z,100945.98
2017-07-29T10:57:19.449Z,100946.85
2017-07-29T10:59:47.244Z,100950.59
2017-07-29T11:02:15.117Z,100958.25
2017-07-29T11:04:42.913Z,100958.75
2017-07-29T11:07:10.750Z,100957.90
2017-07-29T11:09:38.551Z,100956.16
2017-07-29T11:12:06.434Z,100959.89
2017-07-29T11:14:34.246Z,100958.94
2017-07-29T11:17:02.100Z,100949.90
2017-07-29T11:19:29.893Z,100952.88
2017-07-29T11:21:57.688Z,100948.12
2017-07-29T11:24:25.544Z,100943.18
2017-07-29T11:26:53.323Z,100946.89
2017-07-29T11:29:21.154Z,100942.77
2017-07-29T11:31:48.947Z,100944.00
2017-07-29T11:34:16.807Z,100948.75
2017-07-29T11:36:44.660Z,100945.73
2017-07-29T11:39:12.546Z,100935.35
2017-07-29T11:41:40.353Z,100946.59
2017-07-29T11:44:08.141Z,100945.73
2017-07-29T11:46:35.988Z,100950.38
2017-07-29T11:49:03.780Z,100947.73
2017-07-29T11:51:31.613Z,100949.91
2017-07-29T11:53:59.315Z,100958.70
2017-07-29T11:56:27.139Z,100962.00
2017-07-29T11:58:54.929Z,100961.50
2017-07-29T12:01:22.815Z,100965.41
2017-07-29T12:03:50.608Z,100956.83
2017-07-29T12:06:18.452Z,100960.78
2017-07-29T12:08:46.322Z,100961.91
2017-07-29T12:11:14.121Z,100968.98
2017-07-29T12:13:41.966Z,100969.25
2017-07-29T12:16:09.778Z,100974.82
2017-07-29T12:18:37.613Z,100974.83
2017-07-29T12:21:05.458Z,100982.09
2017-07-29T12:23:33.368Z,100987.99
2017-07-29T12:26:01.151Z,100987.39
2017-07-29T12:28:28.973Z,100985.20
2017-07-29T12:30:56.816Z,100986.04
2017-07-29T12:33:24.617Z,100988.80
2017-07-29T12:35:52.519Z,100988.94
2017-07-29T12:38:20.291Z,100987.55
2017-07-29T12:40:48.131Z,100987.89
2017-07-29T12:43:15.930Z,100988.42
2017-07-29T12:45:43.777Z,100997.00
2017-07-29T12:48:11.589Z,101000.04
2017-07-29T12:50:39.442Z,101000.39
2017-07-29T12:53:07.252Z,100989.36
2017-07-29T12:55:35.040Z,100995.05
2017-07-29T12:58:02.890Z,100989.03
2017-07-29T13:00:30.708Z,100982.13
2017-07-29T13:02:58.571Z,100978.17
2017-07-29T13:05:26.409Z,100975.48
2017-07-29T13:07:54.282Z,100976.53
2017-07-29T13:10:22.085Z,100982.39
2017-07-29T13:12:49.953Z,100979.20
2017-07-29T13:15:17.828Z,100982.12
2017-07-29T13:17:45.686Z,100976.44
2017-07-29T13:20:13.485Z,100979.46
2017-07-29T13:22:41.299Z,100983.31
2017-07-29T13:25:09.174Z,100983.09
2017-07-29T13:27:36.959Z,100984.59
2017-07-29T13:30:04.853Z,100979.92
2017-07-29T13:32:32.678Z,100983.36
2017-07-29T13:35:00.578Z,100984.14
2017-07-29T13:37:28.444Z,100979.92
2017-07-29T13:39:56.311Z,100982.50
2017-07-29T13:42:24.150Z,100976.94
2017-07-29T13:44:51.942Z,100982.31
2017-07-29T13:47:19.838Z,100979.11
2017-07-29T13:49:47.615Z,100987.06
2017-07-29T13:52:15.493Z,100985.02
2017-07-29T13:54:43.331Z,100980.70
2017-07-29T13:57:11.179Z,100988.15
2017-07-29T13:59:38.985Z,100999.48
2017-07-29T14:02:06.868Z,101001.69
2017-07-29T14:04:34.668Z,100992.75
2017-07-29T14:07:02.427Z,100995.81
2017-07-29T14:09:30.265Z,100978.80
2017-07-29T14:11:58.539Z,100962.30
2017-07-29T14:14:26.374Z,100954.44
2017-07-29T14:16:54.424Z,100956.30
2017-07-29T14:19:22.262Z,100959.61
2017-07-29T14:21:50.067Z,100959.61
2017-07-29T14:24:17.935Z,100967.31
2017-07-29T14:26:45.724Z,100959.77
2017-07-29T14:29:13.552Z,100961.78
2017-07-29T14:31:41.397Z,100963.59
2017-07-29T14:34:09.194Z,100968.22
2017-07-29T14:36:37.100Z,100975.02
2017-07-29T14:39:04.941Z,100969.20
2017-07-29T14:41:32.836Z,100980.38
2017-07-29T14:44:00.687Z,100978.83
2017-07-29T14:46:28.540Z,100979.97
2017-07-29T14:48:56.320Z,100983.70
2017-07-29T14:51:24.111Z,100979.94
2017-07-29T14:53:51.859Z,100977.22
2017-07-29T14:56:19.668Z,100973.55
2017-07-29T14:58:47.572Z,100976.20
2017-07-29T15:01:15.373Z,100984.78
2017-07-29T15:03:43.204Z,100985.86
2017-07-29T15:06:11.009Z,101003.46
2017-07-29T15:08:38.914Z,101006.77
2017-07-29T15:11:06.726Z,101006.00
2017-07-29T15:13:34.543Z,101013.31
2017-07-29T15:16:02.417Z,101029.76
2017-07-29T15:18:30.215Z,101030.47
2017-07-29T15:20:58.053Z,101035.50
2017-07-29T15:23:25.879Z,101039.69
2017-07-29T15:25:53.750Z,101050.23
2017-07-29T15:28:21.583Z,101044.34
2017-07-29T15:30:49.429Z,101055.98
2017-07-29T15:33:17.263Z,101060.13
2017-07-29T15:35:45.150Z,101046.25
2017-07-29T15:38:13.000Z,101060.02
2017-07-29T15:40:40.832Z,101051.07
2017-07-29T15:43:08.676Z,101050.52
2017-07-29T15:45:36.542Z,101048.73
2017-07-29T15:48:04.384Z,101055.27
2017-07-29T15:50:32.190Z,101057.63
2017-07-29T15:53:00.063Z,101063.03
2017-07-29T15:55:27.983Z,101065.36
2017-07-29T15:57:55.805Z,101066.50
2017-07-29T16:00:23.683Z,101059.70
2017-07-29T16:02:51.492Z,101065.42
2017-07-29T16:05:19.358Z,101055.31
2017-07-29T16:07:47.135Z,101051.70
2017-07-29T16:10:14.973Z,101057.47
2017-07-29T16:12:42.761Z,101049.87
2017-07-29T16:15:10.605Z,101045.56
2017-07-29T16:17:38.426Z,101046.63
2017-07-29T16:20:06.264Z,101046.00
2017-07-29T16:22:34.051Z,101051.41
2017-07-29T16:25:01.837Z,101057.29
2017-07-29T16:27:29.709Z,101057.79
2017-07-29T16:29:57.505Z,101053.39
2017-07-29T16:32:25.368Z,101054.34
2017-07-29T16:34:53.183Z,101055.02
2017-07-29T16:37:21.082Z,101052.59
2017-07-29T16:39:48.862Z,101049.37
2017-07-29T16:42:16.677Z,101052.47
2017-07-29T16:44:44.511Z,101035.67
2017-07-29T16:47:13.226Z,101047.32
2017-07-29T16:49:41.098Z,101041.52
2017-07-29T16:52:08.903Z,101048.52
2017-07-29T16:54:36.759Z,101037.84
2017-07-29T16:57:04.603Z,101042.62
2017-07-29T16:59:32.515Z,101049.69
2017-07-29T17:02:00.312Z,101039.92
2017-07-29T17:04:28.120Z,101045.77
2017-07-29T17:06:55.976Z,101052.56
2017-07-29T17:09:23.798Z,101054.83
2017-07-29T17:11:51.658Z,101047.80
2017-07-29T17:14:19.440Z,101047.78
2017-07-29T17:16:47.302Z,101050.41
2017-07-29T17:19:15.140Z,101049.63
2017-07-29T17:21:42.952Z,101052.00
2017-07-29T17:24:10.806Z,101056.00
2017-07-29T17:26:38.611Z,101051.97
2017-07-29T17:29:06.463Z,101052.86
2017-07-29T17:31:34.279Z,101054.32
2017-07-29T17:34:02.116Z,101055.27
2017-07-29T17:36:29.952Z,101049.06
2017-07-29T17:38:57.726Z,101047.51
2017-07-29T17:41:25.572Z,101043.89
2017-07-29T17:43:53.378Z,101046.73
2017-07-29T17:46:21.213Z,101048.22
2017-07-29T17:48:49.007Z,101046.80
2017-07-29T17:51:16.911Z,101049.41
2017-07-29T17:53:44.748Z,101047.48
2017-07-29T17:56:12.548Z,101044.80
2017-07-29T17:58:40.382Z,101048.97
2017-07-29T18:01:08.187Z,101047.54
2017-07-29T18:03:36.041Z,101050.12
2017-07-29T18:06:03.842Z,101045.62
2017-07-29T18:08:31.707Z,101040.73
2017-07-29T18:10:59.531Z,101040.92
2017-07-29T18:13:27.324Z,101039.43
2017-07-29T18:15:55.173Z,101036.97
2017-07-29T18:18:22.945Z,101035.30
2017-07-29T18:20:50.791Z,101030.11
2017-07-29T18:23:18.604Z,101027.19
2017-07-29T18:25:46.431Z,101034.98
2017-07-29T18:28:14.266Z,101030.48
2017-07-29T18:30:42.103Z,101039.17
2017-07-29T18:33:09.928Z,101042.52
2017-07-29T18:35:37.911Z,101049.52
2017-07-29T18:38:05.773Z,101047.00
2017-07-29T18:40:33.548Z,101053.55
2017-07-29T18:43:01.438Z,101049.31
2017-07-29T18:45:29.227Z,101053.89
2017-07-29T18:47:57.104Z,101054.62
2017-07-29T18:50:24.928Z,101056.24
2017-07-29T18:52:52.798Z,101054.67
2017-07-29T18:55:20.640Z,101056.66
2017-07-29T18:57:48.515Z,101072.98
2017-07-29T19:00:16.313Z,101064.07
2017-07-29T19:02:44.144Z,101070.13
2017-07-29T19:05:12.054Z,101064.01
2017-07-29T19:07:39.873Z,101059.50
2017-07-29T19:10:07.631Z,101060.63
2017-07-29T19:12:35.473Z,101060.15
2017-07-29T19:15:03.296Z,101063.80
2017-07-29T19:17:31.067Z,101068.09
2017-07-29T19:19:58.917Z,101063.14
2017-07-29T19:22:26.738Z,101063.16
2017-07-29T19:24:54.553Z,101064.45
2017-07-29T19:27:22.395Z,101063.14
2017-07-29T19:29:50.185Z,101057.29
2017-07-29T19:32:18.037Z,101051.38
2017-07-29T19:34:45.863Z,101050.11
2017-07-29T19:37:13.764Z,101054.07
2017-07-29T19:39:41.594Z,101053.97
2017-07-29T19:42:09.466Z,101054.46
2017-07-29T19:44:37.308Z,101057.91
2017-07-29T19:47:05.113Z,101058.29
2017-07-29T19:49:32.950Z,101055.02
2017-07-29T19:52:00.786Z,101049.11
2017-07-29T19:54:28.607Z,101051.66
2017-07-29T19:56:56.387Z,101049.56
2017-07-29T19:59:24.210Z,101056.95
2017-07-29T20:01:51.981Z,101054.69
2017-07-29T20:04:19.851Z,101051.04
2017-07-29T20:06:47.644Z,101051.66
2017-07-29T20:09:15.497Z,101049.20
2017-07-29T20:11:43.348Z,101055.80
2017-07-29T20:14:11.140Z,101050.78
2017-07-29T20:16:38.961Z,101046.67
2017-07-29T20:19:07.260Z,101037.39
2017-07-29T20:21:35.110Z,101038.52
2017-07-29T20:24:02.884Z,101032.19
2017-07-29T20:26:30.736Z,101034.97
2017-07-29T20:28:58.524Z,101034.99
2017-07-29T20:31:26.354Z,101037.02
2017-07-29T20:33:54.188Z,101032.05
2017-07-29T20:36:22.014Z,101028.38
2017-07-29T20:38:49.867Z,101033.30
2017-07-29T20:41:17.650Z,101031.78
2017-07-29T20:43:45.498Z,101029.00
2017-07-29T20:46:13.295Z,101025.31
2017-07-29T20:48:41.121Z,101026.23
2017-07-29T20:51:08.917Z,101026.44
2017-07-29T20:53:36.752Z,101018.58
2017-07-29T20:56:04.537Z,101020.34
2017-07-29T20:58:32.396Z,101012.28
2017-07-29T21:01:00.199Z,101011.82
2017-07-29T21:03:28.029Z,101008.60
2017-07-29T21:05:55.832Z,100992.91
2017-07-29T21:08:23.676Z,100997.02
2017-07-29T21:10:51.472Z,100989.27
2017-07-29T21:13:19.309Z,100996.55
2017-07-29T21:15:47.122Z,100991.22
2017-07-29T21:18:14.972Z,100993.98
2017-07-29T21:20:42.752Z,100996.44
2017-07-29T21:23:10.638Z,101001.31
2017-07-29T21:25:38.416Z,100997.34
2017-07-29T21:28:06.196Z,100999.37
2017-07-29T21:30:34.082Z,101000.52
2017-07-29T21:33:01.913Z,100993.00
2017-07-29T21:35:29.737Z,100998.91
2017-07-29T21:37:57.573Z,101000.56
2017-07-29T21:40:25.388Z,100998.24
2017-07-29T21:42:53.188Z,100998.53
2017-07-29T21:45:21.034Z,100996.98
2017-07-29T21:47:48.819Z,100995.12
2017-07-29T21:50:16.663Z,100991.10
2017-07-29T21:52:44.435Z,100993.42
2017-07-29T21:55:12.343Z,100987.50
2017-07-29T21:57:40.150Z,100983.62
2017-07-29T22:00:07.991Z,100980.30
2017-07-29T22:02:35.804Z,100982.16
2017-07-29T22:05:03.628Z,100987.33
2017-07-29T22:07:31.420Z,100982.89
2017-07-29T22:09:59.234Z,100981.26
2017-07-29T22:12:27.034Z,100972.63
2017-07-29T22:14:54.876Z,100971.01
2017-07-29T22:17:22.653Z,100969.89
2017-07-29T22:19:50.487Z,100963.85
2017-07-29T22:22:18.258Z,100956.95
2017-07-29T22:24:46.042Z,100956.75
2017-07-29T22:27:13.844Z,100952.30
2017-07-29T22:29:41.614Z,100957.22
2017-07-29T22:32:09.453Z,100960.73
2017-07-29T22:34:37.248Z,100950.03
2017-07-29T22:37:05.117Z,100948.87
2017-07-29T22:39:32.905Z,100944.69
2017-07-29T22:42:00.730Z,100955.00
2017-07-29T22:44:28.532Z,100949.48
2017-07-29T22:46:56.371Z,100947.34
2017-07-29T22:49:24.147Z,100945.87
2017-07-29T22:51:51.955Z,100946.50
2017-07-29T22:54:19.738Z,100934.83
2017-07-29T22:56:47.560Z,100936.16
2017-07-29T22:59:15.367Z,100933.47
2017-07-29T23:01:43.207Z,100926.97
2017-07-29T23:04:11.007Z,100920.86
2017-07-29T23:06:38.871Z,100918.17
2017-07-29T23:09:06.696Z,100921.48
2017-07-29T23:11:34.528Z,100919.53
2017-07-29T23:14:02.325Z,100920.64
2017-07-29T23:16:30.168Z,100912.83
2017-07-29T23:18:57.975Z,100904.84
2017-07-29T23:21:25.808Z,100901.72
2017-07-29T23:23:53.509Z,100891.46
2017-07-29T23:26:21.291Z,100886.66
2017-07-29T23:28:49.129Z,100876.69
2017-07-29T23:31:16.912Z,100882.82
2017-07-29T23:33:44.743Z,100882.41
2017-07-29T23:36:12.585Z,100881.17
2017-07-29T23:38:40.433Z,100881.83
2017-07-29T23:41:08.227Z,100890.47
2017-07-29T23:43:36.053Z,100882.67
2017-07-29T23:46:03.842Z,100873.41
2017-07-29T23:48:31.651Z,100871.17
2017-07-29T23:50:59.430Z,100873.53
2017-07-29T23:53:27.275Z,100870.63
2017-07-29T23:55:55.048Z,100870.33
2017-07-29T23:58:22.865Z,100857.31
